createdAt,value
2022-10-06T00:01:11.737Z,91.08
2022-10-06T00:03:39.560Z,90.98
2022-10-06T00:06:08.072Z,91.60
2022-10-06T00:08:37.706Z,91.38
2022-10-06T00:11:05.539Z,91.44
2022-10-06T00:13:33.865Z,91.60
2022-10-06T00:16:00.877Z,91.59
2022-10-06T00:18:29.807Z,91.42
2022-10-06T00:21:00.905Z,91.02
2022-10-06T00:23:29.945Z,91.67
2022-10-06T00:25:58.330Z,91.76
2022-10-06T00:28:26.673Z,91.72
2022-10-06T00:30:56.105Z,92.04
2022-10-06T00:33:24.032Z,91.46
2022-10-06T00:36:00.765Z,90.75
2022-10-06T00:38:28.354Z,91.64
2022-10-06T00:40:56.181Z,91.80
2022-10-06T00:43:47.291Z,91.66
2022-10-06T00:46:28.968Z,90.68
2022-10-06T00:49:20.883Z,91.17
2022-10-06T00:52:10.832Z,91.59
2022-10-06T00:54:38.659Z,91.26
2022-10-06T00:57:06.876Z,90.75
2022-10-06T00:59:34.399Z,91.61
2022-10-06T01:02:08.836Z,91.35
2022-10-06T01:04:40.530Z,91.38
2022-10-06T01:07:09.347Z,90.51
2022-10-06T01:09:36.876Z,91.15
2022-10-06T01:12:07.664Z,91.33
2022-10-06T01:14:37.637Z,90.82
2022-10-06T01:17:30.505Z,91.18
2022-10-06T01:20:09.059Z,91.91
2022-10-06T01:22:43.359Z,91.54
2022-10-06T01:25:14.009Z,91.62
2022-10-06T01:27:45.120Z,91.49
2022-10-06T01:30:17.423Z,91.47
2022-10-06T01:32:45.685Z,91.51
2022-10-06T01:35:12.630Z,91.08
2022-10-06T01:37:39.510Z,91.02
2022-10-06T01:40:07.089Z,91.45
2022-10-06T01:42:35.709Z,91.27
2022-10-06T01:45:03.634Z,91.11
2022-10-06T01:47:30.540Z,91.84
2022-10-06T01:49:57.728Z,91.28
2022-10-06T01:52:25.071Z,91.10
2022-10-06T01:54:52.574Z,91.30
2022-10-06T01:57:21.191Z,91.38
2022-10-06T01:59:53.864Z,91.20
2022-10-06T02:02:21.658Z,91.55
2022-10-06T02:04:48.667Z,91.59
2022-10-06T02:07:15.962Z,92.19
2022-10-06T02:09:42.824Z,91.84
2022-10-06T02:12:09.708Z,91.22
2022-10-06T02:14:36.586Z,91.54
2022-10-06T02:17:03.459Z,91.21
2022-10-06T02:19:30.327Z,91.91
2022-10-06T02:21:58.190Z,91.23
2022-10-06T02:24:25.088Z,91.59
2022-10-06T02:26:52.624Z,91.23
2022-10-06T02:29:20.339Z,91.70
2022-10-06T02:31:47.800Z,91.26
2022-10-06T02:34:14.759Z,92.06
2022-10-06T02:36:41.736Z,91.57
2022-10-06T02:39:08.626Z,91.67
2022-10-06T02:41:35.543Z,92.01
2022-10-06T02:44:02.560Z,91.20
2022-10-06T02:46:29.543Z,91.91
2022-10-06T02:48:56.481Z,91.92
2022-10-06T02:51:24.537Z,91.98
2022-10-06T02:53:52.580Z,91.79
2022-10-06T02:56:23.326Z,91.51
2022-10-06T02:58:52.325Z,91.36
2022-10-06T03:01:26.036Z,92.07
2022-10-06T03:03:53.717Z,92.02
2022-10-06T03:06:23.270Z,91.59
2022-10-06T03:08:51.962Z,92.25
2022-10-06T03:11:25.375Z,92.11
2022-10-06T03:13:52.574Z,91.53
2022-10-06T03:16:26.857Z,91.29
2022-10-06T03:18:56.307Z,91.54
2022-10-06T03:21:27.690Z,91.54
2022-10-06T03:23:56.377Z,91.74
2022-10-06T03:26:31.017Z,91.37
2022-10-06T03:28:58.486Z,91.82
2022-10-06T03:31:27.171Z,91.93
2022-10-06T03:33:56.747Z,91.45
2022-10-06T03:36:26.949Z,91.10
2022-10-06T03:38:54.315Z,91.86
2022-10-06T03:41:33.086Z,92.19
2022-10-06T03:44:00.990Z,91.60
2022-10-06T03:46:31.309Z,91.70
2022-10-06T03:48:59.542Z,91.93
2022-10-06T03:51:29.552Z,91.53
2022-10-06T03:53:57.083Z,91.68
2022-10-06T03:56:34.935Z,91.97
2022-10-06T03:59:05.729Z,92.02
2022-10-06T04:01:45.274Z,91.40
2022-10-06T04:04:13.460Z,91.41
2022-10-06T04:06:43.342Z,91.69
2022-10-06T04:09:15.694Z,91.92
2022-10-06T04:11:44.769Z,92.04
2022-10-06T04:14:15.221Z,91.79
2022-10-06T04:16:46.372Z,92.02
2022-10-06T04:19:15.311Z,91.05
2022-10-06T04:21:44.847Z,92.04
2022-10-06T04:24:12.259Z,91.65
2022-10-06T04:26:45.312Z,91.50
2022-10-06T04:29:12.829Z,91.63
2022-10-06T04:31:41.044Z,92.07
2022-10-06T04:34:08.921Z,91.95
2022-10-06T04:36:40.760Z,91.38
2022-10-06T04:39:10.519Z,92.16
2022-10-06T04:41:40.829Z,92.07
2022-10-06T04:44:08.960Z,92.46
2022-10-06T04:46:45.060Z,92.19
2022-10-06T04:49:19.069Z,91.57
2022-10-06T04:51:50.038Z,91.64
2022-10-06T04:54:18.492Z,91.79
2022-10-06T04:56:45.432Z,91.97
2022-10-06T04:59:12.373Z,92.15
2022-10-06T05:01:39.276Z,92.35
2022-10-06T05:04:06.792Z,92.75
2022-10-06T05:06:41.546Z,92.40
2022-10-06T05:09:15.554Z,92.10
2022-10-06T05:11:42.679Z,91.75
2022-10-06T05:14:09.749Z,91.14
2022-10-06T05:16:39.550Z,92.05
2022-10-06T05:19:08.058Z,92.04
2022-10-06T05:21:35.875Z,91.84
2022-10-06T05:24:03.415Z,91.96
2022-10-06T05:26:34.187Z,92.24
2022-10-06T05:29:01.302Z,91.60
2022-10-06T05:31:31.787Z,92.20
2022-10-06T05:34:00.033Z,92.30
2022-10-06T05:36:30.838Z,91.94
2022-10-06T05:38:59.094Z,92.51
2022-10-06T05:41:31.742Z,91.61
2022-10-06T05:43:59.057Z,92.54
2022-10-06T05:46:29.600Z,92.89
2022-10-06T05:48:59.241Z,92.02
2022-10-06T05:51:30.988Z,91.63
2022-10-06T05:53:59.721Z,91.98
2022-10-06T05:56:36.374Z,92.75
2022-10-06T05:59:04.465Z,92.51
2022-10-06T06:01:36.678Z,92.26
2022-10-06T06:04:07.046Z,92.39
2022-10-06T06:06:45.310Z,92.33
2022-10-06T06:09:21.207Z,91.89
2022-10-06T06:11:55.360Z,92.63
2022-10-06T06:14:41.186Z,92.68
2022-10-06T06:17:08.294Z,92.33
2022-10-06T06:19:35.184Z,92.13
2022-10-06T06:22:02.297Z,92.38
2022-10-06T06:24:29.261Z,92.41
2022-10-06T06:26:56.151Z,92.33
2022-10-06T06:29:23.143Z,91.97
2022-10-06T06:31:51.018Z,92.11
2022-10-06T06:34:17.961Z,92.66
2022-10-06T06:36:47.349Z,92.03
2022-10-06T06:39:15.603Z,92.60
2022-10-06T06:41:47.078Z,92.53
2022-10-06T06:44:14.660Z,92.06
2022-10-06T06:46:43.299Z,92.42
2022-10-06T06:49:11.978Z,91.77
2022-10-06T06:51:43.046Z,92.09
2022-10-06T06:54:12.767Z,92.28
2022-10-06T06:56:39.685Z,92.81
2022-10-06T06:59:10.716Z,92.46
2022-10-06T07:01:48.660Z,92.72
2022-10-06T07:04:17.559Z,92.44
2022-10-06T07:06:57.775Z,92.30
2022-10-06T07:09:27.862Z,92.39
2022-10-06T07:11:55.101Z,92.92
2022-10-06T07:14:25.136Z,91.98
2022-10-06T07:17:11.111Z,93.13
2022-10-06T07:19:56.281Z,93.02
2022-10-06T07:22:44.303Z,92.79
2022-10-06T07:25:26.453Z,92.52
2022-10-06T07:27:54.216Z,92.83
2022-10-06T07:30:27.625Z,91.90
2022-10-06T07:32:55.528Z,92.24
2022-10-06T07:35:23.875Z,92.16
2022-10-06T07:37:55.329Z,93.30
2022-10-06T07:40:22.376Z,93.08
2022-10-06T07:42:49.957Z,93.37
2022-10-06T07:45:40.964Z,93.33
2022-10-06T07:48:14.910Z,92.85
2022-10-06T07:50:43.737Z,93.26
2022-10-06T07:53:11.281Z,93.15
2022-10-06T07:55:40.963Z,93.17
2022-10-06T07:58:16.436Z,93.45
2022-10-06T08:00:44.749Z,93.04
2022-10-06T08:03:17.942Z,92.61
2022-10-06T08:05:47.296Z,92.51
2022-10-06T08:08:15.004Z,92.69
2022-10-06T08:10:43.159Z,92.96
2022-10-06T08:13:10.524Z,93.27
2022-10-06T08:15:37.524Z,93.70
2022-10-06T08:18:16.484Z,92.78
2022-10-06T08:20:51.499Z,93.08
2022-10-06T08:23:18.399Z,92.57
2022-10-06T08:25:55.357Z,92.91
2022-10-06T08:28:22.479Z,92.29
2022-10-06T08:30:52.238Z,92.19
2022-10-06T08:33:21.472Z,92.59
2022-10-06T08:35:48.696Z,92.13
2022-10-06T08:38:15.595Z,92.35
2022-10-06T08:40:45.223Z,91.99
2022-10-06T08:43:19.769Z,92.80
2022-10-06T08:45:47.965Z,92.02
2022-10-06T08:48:19.888Z,92.08
2022-10-06T08:51:21.094Z,92.56
2022-10-06T08:54:14.768Z,90.11
2022-10-06T08:56:56.853Z,90.97
2022-10-06T08:59:23.764Z,91.42
2022-10-06T09:01:54.646Z,90.76
2022-10-06T09:04:30.904Z,91.61
2022-10-06T09:07:13.358Z,90.81
2022-10-06T09:10:03.527Z,91.56
2022-10-06T09:12:48.123Z,91.44
2022-10-06T09:15:14.932Z,91.09
2022-10-06T09:17:50.117Z,91.08
2022-10-06T09:20:27.013Z,89.51
2022-10-06T09:22:57.058Z,91.48
2022-10-06T09:25:29.280Z,88.55
2022-10-06T09:27:59.284Z,88.56
2022-10-06T09:30:27.488Z,89.87
2022-10-06T09:33:03.393Z,88.44
2022-10-06T09:35:32.461Z,88.37
2022-10-06T09:38:08.758Z,87.43
2022-10-06T09:40:54.363Z,87.46
2022-10-06T09:43:29.826Z,85.49
2022-10-06T09:46:18.233Z,85.79
2022-10-06T09:48:45.095Z,84.02
2022-10-06T09:51:18.399Z,85.39
2022-10-06T09:54:10.970Z,83.04
2022-10-06T09:56:43.133Z,83.57
2022-10-06T09:59:40.024Z,82.37
2022-10-06T10:02:34.185Z,79.63
2022-10-06T10:05:02.312Z,77.59
2022-10-06T10:07:31.016Z,78.25
2022-10-06T10:10:23.292Z,81.54
2022-10-06T10:12:53.412Z,83.77
2022-10-06T10:15:20.227Z,81.57
2022-10-06T10:17:57.216Z,83.55
2022-10-06T10:20:52.370Z,80.83
2022-10-06T10:23:40.870Z,80.98
2022-10-06T10:26:26.689Z,82.52
2022-10-06T10:29:18.399Z,80.66
2022-10-06T10:31:58.119Z,78.57
2022-10-06T10:34:59.993Z,79.39
2022-10-06T10:37:38.628Z,79.45
2022-10-06T10:40:35.398Z,78.38
2022-10-06T10:43:36.033Z,77.68
2022-10-06T10:46:24.664Z,78.00
2022-10-06T10:49:05.211Z,73.79
2022-10-06T10:51:38.714Z,75.04
2022-10-06T10:54:25.024Z,76.90
2022-10-06T10:56:53.771Z,77.24
2022-10-06T10:59:39.254Z,78.95
2022-10-06T11:02:19.779Z,77.93
2022-10-06T11:04:54.223Z,69.78
2022-10-06T11:07:31.173Z,73.96
2022-10-06T11:10:23.136Z,74.02
2022-10-06T11:13:33.473Z,70.51
2022-10-06T11:16:40.872Z,72.89
2022-10-06T11:19:55.043Z,75.03
2022-10-06T11:22:44.956Z,72.20
2022-10-06T11:26:09.629Z,73.46
2022-10-06T11:28:49.671Z,74.03
2022-10-06T11:31:38.994Z,72.10
2022-10-06T11:34:06.854Z,72.42
2022-10-06T11:36:52.164Z,71.67
2022-10-06T11:39:46.823Z,74.08
2022-10-06T11:42:49.104Z,74.25
2022-10-06T11:45:23.095Z,72.80
2022-10-06T11:48:10.276Z,69.10
2022-10-06T11:50:42.619Z,70.24
2022-10-06T11:53:39.745Z,72.05
2022-10-06T11:56:39.261Z,70.70
2022-10-06T11:59:25.020Z,70.14
2022-10-06T12:01:57.771Z,73.13
2022-10-06T12:04:26.332Z,71.10
2022-10-06T12:06:56.499Z,68.48
2022-10-06T12:09:31.038Z,73.95
2022-10-06T12:12:17.731Z,73.88
2022-10-06T12:18:04.473Z,72.58
2022-10-06T12:21:08.250Z,72.07
2022-10-06T12:24:05.648Z,73.25
2022-10-06T12:26:50.149Z,72.69
2022-10-06T12:29:34.487Z,71.79
2022-10-06T12:32:19.192Z,73.94
2022-10-06T12:35:03.800Z,74.22
2022-10-06T12:37:50.115Z,70.35
2022-10-06T12:40:42.639Z,71.59
2022-10-06T12:43:18.147Z,72.66
2022-10-06T12:45:47.665Z,70.52
2022-10-06T12:48:55.983Z,73.19
2022-10-06T12:51:41.310Z,70.33
2022-10-06T12:54:20.192Z,71.17
2022-10-06T12:57:00.427Z,73.08
2022-10-06T12:59:38.410Z,69.66
2022-10-06T13:02:20.547Z,71.33
2022-10-06T13:04:55.437Z,69.20
2022-10-06T13:07:34.214Z,71.17
2022-10-06T13:10:20.053Z,74.02
2022-10-06T13:12:50.271Z,72.77
2022-10-06T13:15:22.231Z,72.67
2022-10-06T13:18:13.176Z,73.06
2022-10-06T13:20:51.093Z,73.60
2022-10-06T13:23:22.275Z,71.49
2022-10-06T13:26:04.521Z,73.44
2022-10-06T13:28:43.400Z,71.00
2022-10-06T13:31:24.527Z,70.40
2022-10-06T13:34:13.666Z,70.85
2022-10-06T13:36:49.307Z,72.20
2022-10-06T13:39:25.484Z,68.70
2022-10-06T13:42:03.708Z,68.81
2022-10-06T13:44:41.996Z,68.94
2022-10-06T13:47:24.467Z,71.48
2022-10-06T13:50:08.564Z,68.77
2022-10-06T13:52:50.477Z,71.27
2022-10-06T13:55:25.680Z,68.85
2022-10-06T13:58:04.868Z,71.66
2022-10-06T14:01:01.096Z,67.55
2022-10-06T14:06:21.839Z,67.13
2022-10-06T14:08:54.077Z,69.32
2022-10-06T14:11:28.002Z,70.71
2022-10-06T14:13:59.119Z,66.06
2022-10-06T14:16:27.976Z,69.15
2022-10-06T14:19:05.961Z,67.48
2022-10-06T14:21:36.389Z,71.36
2022-10-06T14:24:17.222Z,71.23
2022-10-06T14:26:51.229Z,73.00
2022-10-06T14:29:19.655Z,72.58
2022-10-06T14:31:48.040Z,69.90
2022-10-06T14:34:21.684Z,66.46
2022-10-06T14:36:55.178Z,68.40
2022-10-06T14:39:22.587Z,66.91
2022-10-06T14:41:50.093Z,67.12
2022-10-06T14:44:17.228Z,69.00
2022-10-06T14:46:48.207Z,65.91
2022-10-06T14:49:15.589Z,66.01
2022-10-06T14:51:44.179Z,69.46
2022-10-06T14:54:12.130Z,70.60
2022-10-06T14:56:40.628Z,69.95
2022-10-06T14:59:12.077Z,70.03
2022-10-06T15:01:40.464Z,71.76
2022-10-06T15:04:11.879Z,71.05
2022-10-06T15:06:58.376Z,72.95
2022-10-06T15:09:25.429Z,69.22
2022-10-06T15:11:54.096Z,72.09
2022-10-06T15:14:24.616Z,73.29
2022-10-06T15:16:52.229Z,71.40
2022-10-06T15:19:19.250Z,71.41
2022-10-06T15:21:46.392Z,69.67
2022-10-06T15:24:17.542Z,72.40
2022-10-06T15:27:05.226Z,69.55
2022-10-06T15:29:34.639Z,73.19
2022-10-06T15:32:03.757Z,71.96
2022-10-06T15:34:34.048Z,71.15
2022-10-06T15:37:02.343Z,71.20
2022-10-06T15:39:32.105Z,74.43
2022-10-06T15:41:59.354Z,71.31
2022-10-06T15:44:26.769Z,73.46
2022-10-06T15:46:57.313Z,69.45
2022-10-06T15:49:27.167Z,67.07
2022-10-06T15:52:02.612Z,73.26
2022-10-06T15:54:39.412Z,71.32
2022-10-06T15:57:10.453Z,69.43
2022-10-06T15:59:39.968Z,71.02
2022-10-06T16:02:17.980Z,69.45
2022-10-06T16:05:16.260Z,72.82
2022-10-06T16:07:43.124Z,71.87
2022-10-06T16:10:10.307Z,72.75
2022-10-06T16:12:37.211Z,70.69
2022-10-06T16:15:04.609Z,71.42
2022-10-06T16:17:31.493Z,74.64
2022-10-06T16:19:58.379Z,76.48
2022-10-06T16:22:25.261Z,72.87
2022-10-06T16:24:52.140Z,73.41
2022-10-06T16:27:19.077Z,74.50
2022-10-06T16:29:46.149Z,74.37
2022-10-06T16:32:13.022Z,73.73
2022-10-06T16:34:39.897Z,74.86
2022-10-06T16:37:06.813Z,73.68
2022-10-06T16:39:33.736Z,73.64
2022-10-06T16:42:00.620Z,77.54
2022-10-06T16:44:27.528Z,74.35
2022-10-06T16:46:54.782Z,74.37
2022-10-06T16:49:21.783Z,75.04
2022-10-06T16:51:48.665Z,75.00
2022-10-06T16:54:20.754Z,75.56
2022-10-06T16:56:54.218Z,77.70
2022-10-06T16:59:23.746Z,78.59
2022-10-06T17:01:51.026Z,76.51
2022-10-06T17:04:21.191Z,79.41
2022-10-06T17:06:51.635Z,78.97
2022-10-06T17:09:21.602Z,76.97
2022-10-06T17:11:54.406Z,78.35
2022-10-06T17:14:22.574Z,78.65
2022-10-06T17:16:52.371Z,80.12
2022-10-06T17:19:22.267Z,78.52
2022-10-06T17:21:54.042Z,78.42
2022-10-06T17:24:27.596Z,79.71
2022-10-06T17:26:54.880Z,79.78
2022-10-06T17:29:23.847Z,80.79
2022-10-06T17:31:56.092Z,79.94
2022-10-06T17:34:26.446Z,80.36
2022-10-06T17:36:57.539Z,79.60
2022-10-06T17:39:24.728Z,80.57
2022-10-06T17:41:53.548Z,80.55
2022-10-06T17:44:25.729Z,80.88
2022-10-06T17:46:55.596Z,81.23
2022-10-06T17:49:24.299Z,81.23
2022-10-06T17:51:54.376Z,80.59
2022-10-06T17:54:24.640Z,81.04
2022-10-06T17:56:55.622Z,79.94
2022-10-06T17:59:24.533Z,81.30
2022-10-06T18:01:53.888Z,80.41
2022-10-06T18:04:20.941Z,79.96
2022-10-06T18:06:48.449Z,81.38
2022-10-06T18:09:16.542Z,81.35
2022-10-06T18:11:48.293Z,81.24
2022-10-06T18:14:21.225Z,80.13
2022-10-06T18:16:56.634Z,81.04
2022-10-06T18:19:26.684Z,80.67
2022-10-06T18:22:00.939Z,81.35
2022-10-06T18:24:30.124Z,81.68
2022-10-06T18:26:59.824Z,81.84
2022-10-06T18:29:30.757Z,81.88
2022-10-06T18:32:09.459Z,80.38
2022-10-06T18:37:32.125Z,81.06
2022-10-06T18:39:59.552Z,81.18
2022-10-06T18:42:26.832Z,81.07
2022-10-06T18:45:12.238Z,81.72
2022-10-06T18:47:57.785Z,81.11
2022-10-06T18:50:24.732Z,81.26
2022-10-06T18:52:51.595Z,82.57
2022-10-06T18:55:18.467Z,81.54
2022-10-06T18:57:45.705Z,82.52
2022-10-06T19:00:13.406Z,81.97
2022-10-06T19:02:41.347Z,82.40
2022-10-06T19:05:10.694Z,82.47
2022-10-06T19:07:38.031Z,82.79
2022-10-06T19:10:05.421Z,81.75
2022-10-06T19:12:32.283Z,82.79
2022-10-06T19:14:59.225Z,81.76
2022-10-06T19:17:26.145Z,83.05
2022-10-06T19:19:55.193Z,83.00
2022-10-06T19:22:24.464Z,83.43
2022-10-06T19:24:52.110Z,82.78
2022-10-06T19:27:24.805Z,82.77
2022-10-06T19:29:56.277Z,82.96
2022-10-06T19:32:32.569Z,81.71
2022-10-06T19:35:00.097Z,82.88
2022-10-06T19:37:29.742Z,83.17
2022-10-06T19:39:56.812Z,83.67
2022-10-06T19:42:42.833Z,83.13
2022-10-06T19:45:11.858Z,83.47
2022-10-06T19:47:39.442Z,82.65
2022-10-06T19:50:11.694Z,83.05
2022-10-06T19:52:40.512Z,82.72
2022-10-06T19:55:07.631Z,82.67
2022-10-06T19:57:35.205Z,83.69
2022-10-06T20:00:02.232Z,83.53
2022-10-06T20:02:29.288Z,83.41
2022-10-06T20:04:56.780Z,83.57
2022-10-06T20:07:27.284Z,82.82
2022-10-06T20:09:54.273Z,83.53
2022-10-06T20:12:25.045Z,83.72
2022-10-06T20:14:56.009Z,82.68
2022-10-06T20:17:23.042Z,83.15
2022-10-06T20:19:55.128Z,83.40
2022-10-06T20:22:24.756Z,84.25
2022-10-06T20:24:52.119Z,84.24
2022-10-06T20:27:19.118Z,83.99
2022-10-06T20:29:46.071Z,83.55
2022-10-06T20:32:14.044Z,83.66
2022-10-06T20:34:41.099Z,83.58
2022-10-06T20:37:08.041Z,83.72
2022-10-06T20:39:53.696Z,84.24
2022-10-06T20:42:21.832Z,84.39
2022-10-06T20:44:48.919Z,84.22
2022-10-06T20:47:16.597Z,84.92
2022-10-06T20:49:43.829Z,84.15
2022-10-06T20:52:14.236Z,83.83
2022-10-06T20:54:41.489Z,83.95
2022-10-06T20:57:09.309Z,83.53
2022-10-06T20:59:36.380Z,84.09
2022-10-06T21:02:05.176Z,84.76
2022-10-06T21:04:32.344Z,84.34
2022-10-06T21:06:59.342Z,84.33
2022-10-06T21:09:28.227Z,84.46
2022-10-06T21:11:56.295Z,84.48
2022-10-06T21:14:23.898Z,84.25
2022-10-06T21:16:51.420Z,83.80
2022-10-06T21:19:19.754Z,83.58
2022-10-06T21:21:53.146Z,84.46
2022-10-06T21:24:20.907Z,84.18
2022-10-06T21:26:49.123Z,84.52
2022-10-06T21:29:16.532Z,83.76
2022-10-06T21:31:44.649Z,84.89
2022-10-06T21:34:12.186Z,84.64
2022-10-06T21:36:39.142Z,84.61
2022-10-06T21:39:06.838Z,85.58
2022-10-06T21:41:39.415Z,84.90
2022-10-06T21:44:08.663Z,84.49
2022-10-06T21:46:42.274Z,85.16
2022-10-06T21:49:21.516Z,85.67
2022-10-06T21:51:51.562Z,85.19
2022-10-06T21:54:19.509Z,85.07
2022-10-06T21:56:46.990Z,84.81
2022-10-06T21:59:14.379Z,84.90
2022-10-06T22:01:44.434Z,85.64
2022-10-06T22:04:14.026Z,85.47
2022-10-06T22:06:41.433Z,85.07
2022-10-06T22:09:14.251Z,85.40
2022-10-06T22:11:41.800Z,85.06
2022-10-06T22:14:14.017Z,84.80
2022-10-06T22:16:41.122Z,84.68
2022-10-06T22:19:11.582Z,85.43
2022-10-06T22:21:42.366Z,85.00
2022-10-06T22:24:17.046Z,84.90
2022-10-06T22:26:44.403Z,85.20
2022-10-06T22:29:15.018Z,85.12
2022-10-06T22:31:44.722Z,84.88
2022-10-06T22:34:14.846Z,85.21
2022-10-06T22:36:41.727Z,85.22
2022-10-06T22:39:08.930Z,85.19
2022-10-06T22:41:36.082Z,84.71
2022-10-06T22:44:03.282Z,85.07
2022-10-06T22:46:33.289Z,85.15
2022-10-06T22:49:01.060Z,85.32
2022-10-06T22:51:27.998Z,85.02
2022-10-06T22:53:58.530Z,85.36
2022-10-06T22:56:32.006Z,85.20
2022-10-06T22:59:00.239Z,85.51
2022-10-06T23:01:28.686Z,85.32
2022-10-06T23:03:55.915Z,85.09
2022-10-06T23:06:23.028Z,85.16
2022-10-06T23:08:49.898Z,85.60
2022-10-06T23:11:20.031Z,84.84
2022-10-06T23:13:48.303Z,85.63
2022-10-06T23:16:18.126Z,85.87
2022-10-06T23:18:45.578Z,85.38
2022-10-06T23:21:23.947Z,85.34
2022-10-06T23:23:58.335Z,85.77
2022-10-06T23:26:25.490Z,85.75
2022-10-06T23:28:58.917Z,85.49
2022-10-06T23:31:27.252Z,85.42
2022-10-06T23:33:55.207Z,86.07
2022-10-06T23:36:22.198Z,86.06
2022-10-06T23:38:49.140Z,85.41
2022-10-06T23:41:16.624Z,85.77
2022-10-06T23:43:44.012Z,85.50
2022-10-06T23:46:11.232Z,85.50
2022-10-06T23:48:38.171Z,85.64
2022-10-06T23:51:12.231Z,86.19
2022-10-06T23:53:39.596Z,85.75
2022-10-06T23:56:07.920Z,85.45
2022-10-06T23:58:35.516Z,86.20
